createdAt,value
2022-12-12T00:01:04.840Z,0.3
2022-12-12T00:05:08.709Z,0.3
2022-12-12T00:10:08.188Z,0.4
2022-12-12T00:15:07.949Z,0.4
2022-12-12T00:20:07.720Z,0.4
2022-12-12T00:25:08.547Z,0.4
2022-12-12T00:30:08.352Z,0.3
2022-12-12T00:35:08.104Z,0.3
2022-12-12T00:40:07.911Z,0.3
2022-12-12T00:45:08.720Z,0.3
2022-12-12T00:50:08.493Z,0.4
2022-12-12T00:55:08.241Z,0.4
2022-12-12T01:00:08.018Z,0.3
2022-12-12T01:05:08.433Z,0.3
2022-12-12T01:10:08.228Z,0.3
2022-12-12T01:15:08.034Z,0.3
2022-12-12T01:20:07.826Z,0.4
2022-12-12T01:25:08.585Z,0.4
2022-12-12T01:30:08.347Z,0.4
2022-12-12T01:35:08.138Z,0.4
2022-12-12T01:40:07.954Z,0.4
2022-12-12T01:45:07.743Z,0.4
2022-12-12T01:50:08.532Z,0.3
2022-12-12T01:55:08.327Z,0.3
2022-12-12T02:00:08.064Z,0.3
2022-12-12T02:05:07.879Z,0.3
2022-12-12T02:10:08.652Z,0.3
2022-12-12T02:15:08.473Z,0.3
2022-12-12T02:20:08.295Z,0.3
2022-12-12T02:25:08.049Z,0.3
2022-12-12T02:30:07.826Z,0.3
2022-12-12T02:35:11.217Z,0.3
2022-12-12T02:40:08.122Z,0.1
2022-12-12T02:45:07.876Z,0.1
2022-12-12T02:50:08.656Z,0.1
2022-12-12T02:55:08.421Z,0.1
2022-12-12T03:00:08.214Z,-0.3
2022-12-12T03:05:08.017Z,-0.3
2022-12-12T03:10:17.822Z,-0.5
2022-12-12T03:15:08.549Z,-0.5
2022-12-12T03:20:08.363Z,-0.8
2022-12-12T03:25:08.174Z,-0.8
2022-12-12T03:30:07.986Z,-1.1
2022-12-12T03:35:07.869Z,-1.1
2022-12-12T03:40:18.663Z,-1.1
2022-12-12T03:45:08.415Z,-1.1
2022-12-12T03:50:08.211Z,-1.2
2022-12-12T03:55:07.994Z,-1.2
2022-12-12T04:00:07.815Z,-1.5
2022-12-12T04:05:08.603Z,-1.5
2022-12-12T04:10:08.397Z,-1.2
2022-12-12T04:15:08.153Z,-1.2
2022-12-12T04:20:08.035Z,-1.2
2022-12-12T04:25:07.878Z,-1.2
2022-12-12T04:30:08.657Z,-1.5
2022-12-12T04:35:08.429Z,-1.5
2022-12-12T04:40:08.223Z,-1.7
2022-12-12T04:45:08.036Z,-1.7
2022-12-12T04:50:07.816Z,-2.0
2022-12-12T04:55:08.599Z,-2.0
2022-12-12T05:00:08.369Z,-2.0
2022-12-12T05:05:02.451Z,-2.0
2022-12-12T05:10:02.536Z,-2.0
2022-12-12T05:15:02.583Z,-2.0
2022-12-12T05:20:02.809Z,-2.0
2022-12-12T05:25:02.678Z,-2.0
2022-12-12T05:30:02.700Z,-2.2
2022-12-12T05:35:02.816Z,-2.2
2022-12-12T05:40:04.198Z,-2.5
2022-12-12T05:45:02.160Z,-2.5
2022-12-12T05:50:01.978Z,-2.5
2022-12-12T05:55:01.903Z,-2.5
2022-12-12T06:00:03.051Z,-2.5
2022-12-12T06:05:02.065Z,-2.5
2022-12-12T06:10:01.967Z,-2.5
2022-12-12T06:15:01.946Z,-2.5
2022-12-12T06:20:01.890Z,-2.7
2022-12-12T06:25:02.934Z,-2.7
2022-12-12T06:30:01.963Z,-2.7
2022-12-12T06:35:02.099Z,-2.7
2022-12-12T06:40:02.328Z,-2.9
2022-12-12T06:45:02.240Z,-2.9
2022-12-12T06:50:02.285Z,-2.9
2022-12-12T06:55:02.164Z,-2.9
2022-12-12T07:00:02.163Z,-2.9
2022-12-12T07:05:02.175Z,-3.0
2022-12-12T07:10:02.345Z,-3.0
2022-12-12T07:15:02.361Z,-3.0
2022-12-12T07:20:02.302Z,-3.0
2022-12-12T07:25:02.299Z,-3.0
2022-12-12T07:30:02.188Z,-3.0
2022-12-12T07:35:02.311Z,-3.0
2022-12-12T07:40:02.351Z,-2.9
2022-12-12T07:45:02.442Z,-2.9
2022-12-12T07:50:02.457Z,-2.9
2022-12-12T07:55:02.481Z,-2.9
2022-12-12T08:00:02.763Z,-2.7
2022-12-12T08:05:02.991Z,-2.7
2022-12-12T08:10:02.180Z,-2.9
2022-12-12T08:15:02.306Z,-2.9
2022-12-12T08:20:02.408Z,-2.7
2022-12-12T08:25:02.342Z,-2.7
2022-12-12T08:30:02.321Z,-2.7
2022-12-12T08:35:02.341Z,-2.7
2022-12-12T08:40:02.295Z,-2.5
2022-12-12T08:45:02.268Z,-2.5
2022-12-12T08:50:02.245Z,-2.2
2022-12-12T08:55:02.211Z,-2.2
2022-12-12T09:00:02.133Z,-1.8
2022-12-12T09:05:02.282Z,-1.8
2022-12-12T09:10:02.339Z,-1.5
2022-12-12T09:15:02.451Z,-1.5
2022-12-12T09:20:02.415Z,-1.2
2022-12-12T09:25:02.320Z,-1.2
2022-12-12T09:30:02.344Z,-0.6
2022-12-12T09:35:02.482Z,-0.6
2022-12-12T09:40:02.621Z,-0.3
2022-12-12T09:45:02.560Z,-0.3
2022-12-12T09:50:02.540Z,0.4
2022-12-12T09:55:02.806Z,0.4
2022-12-12T10:00:02.695Z,0.7
2022-12-12T10:05:09.884Z,0.7
2022-12-12T10:10:02.941Z,0.4
2022-12-12T10:15:02.045Z,0.4
2022-12-12T10:20:02.071Z,1.3
2022-12-12T10:25:02.181Z,1.3
2022-12-12T10:30:02.397Z,0.7
2022-12-12T10:35:03.202Z,0.7
2022-12-12T10:40:02.499Z,0.7
2022-12-12T10:45:02.479Z,0.7
2022-12-12T10:50:02.583Z,1.3
2022-12-12T10:55:02.566Z,1.3
2022-12-12T11:00:02.624Z,1.7
2022-12-12T11:05:02.777Z,1.7
2022-12-12T11:10:02.836Z,1.2
2022-12-12T11:15:01.917Z,1.2
2022-12-12T11:20:02.943Z,1.7
2022-12-12T11:25:02.058Z,1.7
2022-12-12T11:30:02.137Z,0.6
2022-12-12T11:35:02.125Z,0.6
2022-12-12T11:40:02.249Z,0.8
2022-12-12T11:45:02.126Z,1.1
2022-12-12T11:50:06.230Z,1.1
2022-12-12T11:55:02.374Z,0.7
2022-12-12T12:00:02.383Z,0.7
2022-12-12T12:05:02.336Z,0.8
2022-12-12T12:10:02.352Z,0.8
2022-12-12T12:15:02.345Z,0.7
2022-12-12T12:20:12.433Z,0.7
2022-12-12T12:25:02.471Z,0.8
2022-12-12T12:30:02.665Z,0.8
2022-12-12T12:35:02.803Z,0.6
2022-12-12T12:40:02.688Z,0.7
2022-12-12T12:45:02.951Z,0.7
2022-12-12T12:50:01.982Z,0.8
2022-12-12T12:55:01.853Z,0.8
2022-12-12T13:00:03.130Z,0.7
2022-12-12T13:05:02.264Z,0.7
2022-12-12T13:10:02.409Z,0.8
2022-12-12T13:15:02.400Z,0.8
2022-12-12T13:20:02.535Z,0.8
2022-12-12T13:25:12.570Z,0.8
2022-12-12T13:30:02.752Z,0.8
2022-12-12T13:35:02.869Z,0.8
2022-12-12T13:40:02.867Z,0.8
2022-12-12T13:45:02.917Z,0.8
2022-12-12T13:50:01.823Z,0.8
2022-12-12T13:55:02.888Z,0.8
2022-12-12T14:00:02.844Z,0.8
2022-12-12T14:05:02.900Z,0.8
2022-12-12T14:10:02.756Z,0.8
2022-12-12T14:15:02.593Z,0.8
2022-12-12T14:20:02.830Z,0.8
2022-12-12T14:25:02.755Z,0.8
2022-12-12T14:30:02.710Z,0.7
2022-12-12T14:35:12.640Z,0.7
2022-12-12T14:40:02.584Z,0.7
2022-12-12T14:45:02.657Z,0.7
2022-12-12T14:50:02.608Z,0.7
2022-12-12T14:55:02.586Z,0.7
2022-12-12T15:00:02.656Z,0.6
2022-12-12T15:05:04.767Z,0.6
2022-12-12T15:10:02.200Z,0.4
2022-12-12T15:15:02.136Z,0.4
2022-12-12T15:20:02.174Z,-0.3
2022-12-12T15:25:02.056Z,-0.3
2022-12-12T15:30:01.983Z,-0.6
2022-12-12T15:35:01.912Z,-0.6
2022-12-12T15:40:03.009Z,-1.1
2022-12-12T15:45:02.036Z,-1.1
2022-12-12T15:50:02.117Z,-1.1
2022-12-12T15:55:02.347Z,-1.2
2022-12-12T16:00:02.480Z,-1.2
2022-12-12T16:05:02.706Z,-1.5
2022-12-12T16:10:02.001Z,-1.5
2022-12-12T16:15:02.137Z,-1.7
2022-12-12T16:20:02.195Z,-1.7
2022-12-12T16:25:02.298Z,-1.8
2022-12-12T16:30:02.445Z,-1.8
2022-12-12T16:35:02.376Z,-2.0
2022-12-12T16:40:02.415Z,-2.0
2022-12-12T16:45:02.519Z,-2.0
2022-12-12T16:50:02.561Z,-2.2
2022-12-12T16:55:02.574Z,-2.2
2022-12-12T17:00:02.481Z,-2.2
2022-12-12T17:05:02.553Z,-2.2
2022-12-12T17:10:02.519Z,-2.5
2022-12-12T17:15:02.558Z,-2.5
2022-12-12T17:20:02.520Z,-2.7
2022-12-12T17:25:02.421Z,-2.7
2022-12-12T17:30:02.397Z,-2.7
2022-12-12T17:35:02.307Z,-2.7
2022-12-12T17:40:02.250Z,-2.9
2022-12-12T17:45:02.132Z,-2.9
2022-12-12T17:50:02.059Z,-3.0
2022-12-12T17:55:54.399Z,-3.0
2022-12-12T18:00:02.446Z,-3.0
2022-12-12T18:05:02.405Z,-3.0
2022-12-12T18:10:02.408Z,-3.2
2022-12-12T18:15:02.329Z,-3.2
2022-12-12T18:20:02.304Z,-3.2
2022-12-12T18:25:02.426Z,-3.2
2022-12-12T18:30:02.421Z,-3.2
2022-12-12T18:35:02.468Z,-3.2
2022-12-12T18:40:02.510Z,-3.2
2022-12-12T18:45:02.496Z,-3.2
2022-12-12T18:50:02.481Z,-3.5
2022-12-12T18:55:02.416Z,-3.5
2022-12-12T19:00:02.379Z,-3.2
2022-12-12T19:05:02.279Z,-3.2
2022-12-12T19:10:02.479Z,-3.7
2022-12-12T19:15:17.333Z,-3.7
2022-12-12T19:20:02.909Z,-3.7
2022-12-12T19:25:02.845Z,-3.7
2022-12-12T19:30:02.812Z,-3.7
2022-12-12T19:35:02.700Z,-3.7
2022-12-12T19:40:02.582Z,-3.9
2022-12-12T19:45:02.574Z,-3.9
2022-12-12T19:50:02.408Z,-3.9
2022-12-12T19:55:02.344Z,-3.9
2022-12-12T20:00:02.308Z,-4.0
2022-12-12T20:05:02.243Z,-4.0
2022-12-12T20:10:02.202Z,-4.0
2022-12-12T20:15:02.137Z,-4.0
2022-12-12T20:20:02.046Z,-4.0
2022-12-12T20:25:01.947Z,-4.0
2022-12-12T20:30:01.915Z,-4.3
2022-12-12T20:35:02.827Z,-4.3
2022-12-12T20:40:02.644Z,-4.3
2022-12-12T20:45:02.520Z,-4.3
2022-12-12T20:50:02.474Z,-4.3
2022-12-12T20:55:02.367Z,-4.3
2022-12-12T21:00:02.394Z,-4.5
2022-12-12T21:05:02.581Z,-4.5
2022-12-12T21:10:02.633Z,-4.5
2022-12-12T21:15:03.215Z,-4.5
2022-12-12T21:20:06.468Z,-4.6
2022-12-12T21:25:02.991Z,-4.6
2022-12-12T21:30:01.992Z,-4.6
2022-12-12T21:35:01.960Z,-4.6
2022-12-12T21:40:01.988Z,-4.6
2022-12-12T21:45:01.970Z,-4.6
2022-12-12T21:50:01.924Z,-4.9
2022-12-12T21:55:02.856Z,-4.9
2022-12-12T22:00:02.723Z,-4.9
2022-12-12T22:05:15.950Z,-4.9
2022-12-12T22:10:10.909Z,-4.9
2022-12-12T22:15:08.438Z,-4.9
2022-12-12T22:20:08.243Z,-4.9
2022-12-12T22:25:08.013Z,-4.9
2022-12-12T22:30:07.798Z,-4.6
2022-12-12T22:35:08.587Z,-4.6
2022-12-12T22:40:08.343Z,-4.6
2022-12-12T22:45:08.184Z,-4.6
2022-12-12T22:50:07.975Z,-4.9
2022-12-12T22:55:07.811Z,-4.9
2022-12-12T23:00:08.632Z,-4.9
2022-12-12T23:05:08.604Z,-4.9
2022-12-12T23:10:08.452Z,-4.9
2022-12-12T23:15:08.231Z,-4.9
2022-12-12T23:20:07.994Z,-5.1
2022-12-12T23:25:07.792Z,-5.1
2022-12-12T23:30:08.612Z,-5.4
2022-12-12T23:35:08.377Z,-5.4
2022-12-12T23:40:08.161Z,-5.1
2022-12-12T23:45:07.921Z,-5.1
2022-12-12T23:50:08.703Z,-5.4
2022-12-12T23:55:08.509Z,-5.4
